Terminal Aerodrome Forecast
Issued by NWS

Home | Current Version | Previous Version | Text Only | Print | Product List | Glossary On
Versions: 1 2 3 4 5 6 7 8 9 10 11 12 13 14 15
197
FTUS43 KEAX 242101 AAC
TAFSTJ
TAF AMD
KSTJ 242101Z 2421/2518 32016G24KT 5SM -SN OVC030
      TEMPO 2421/2422 2SM -SN BKN015
     FM250100 32015G23KT P6SM OVC015
     FM250300 32013KT P6SM BKN060
     FM250800 32012KT P6SM SCT200=

USA.gov is the U.S. government's official web portal to all federal, state and local government web resources and services.